createdAt,value
2017-10-29T00:01:10.579Z,84.90
2017-10-29T00:03:38.944Z,85.70
2017-10-29T00:06:06.568Z,85.00
2017-10-29T00:08:34.111Z,84.90
2017-10-29T00:11:01.676Z,85.60
2017-10-29T00:13:29.200Z,85.90
2017-10-29T00:15:56.731Z,86.40
2017-10-29T00:18:24.303Z,86.50
2017-10-29T00:20:51.835Z,86.30
2017-10-29T00:23:19.369Z,86.80
2017-10-29T00:25:46.946Z,87.20
2017-10-29T00:28:15.476Z,87.40
2017-10-29T00:30:43.000Z,86.80
2017-10-29T00:33:10.563Z,87.20
2017-10-29T00:35:38.097Z,86.90
2017-10-29T00:38:05.619Z,87.20
2017-10-29T00:40:33.952Z,86.40
2017-10-29T00:43:01.488Z,86.40
2017-10-29T00:45:29.640Z,87.50
2017-10-29T00:47:57.981Z,86.60
2017-10-29T00:50:25.517Z,86.60
2017-10-29T00:52:53.043Z,86.70
2017-10-29T00:55:21.364Z,86.40
2017-10-29T00:57:48.896Z,86.40
2017-10-29T01:00:17.272Z,85.60
2017-10-29T01:02:44.822Z,85.60
2017-10-29T01:05:12.363Z,87.00
2017-10-29T01:07:39.896Z,86.00
2017-10-29T01:10:07.496Z,86.10
2017-10-29T01:12:35.025Z,85.50
2017-10-29T01:15:02.553Z,84.10
2017-10-29T01:17:30.120Z,84.80
2017-10-29T01:19:57.647Z,84.00
2017-10-29T01:22:25.176Z,84.30
2017-10-29T01:24:52.824Z,84.70
2017-10-29T01:27:20.360Z,84.40
2017-10-29T01:29:47.887Z,83.70
2017-10-29T01:32:16.448Z,83.60
2017-10-29T01:34:43.992Z,83.30
2017-10-29T01:37:11.511Z,83.20
2017-10-29T01:39:39.055Z,83.40
2017-10-29T01:42:06.579Z,84.20
2017-10-29T01:44:34.122Z,84.10
2017-10-29T01:47:02.249Z,84.60
2017-10-29T01:49:29.779Z,84.20
2017-10-29T01:51:58.067Z,84.70
2017-10-29T01:54:25.640Z,84.60
2017-10-29T01:56:53.163Z,84.40
2017-10-29T01:59:20.692Z,84.70
2017-10-29T02:01:48.260Z,84.40
2017-10-29T02:04:16.421Z,85.10
2017-10-29T02:06:43.957Z,85.10
2017-10-29T02:09:11.522Z,84.90
2017-10-29T02:11:39.047Z,85.30
2017-10-29T02:14:07.343Z,84.90
2017-10-29T02:16:34.923Z,84.90
2017-10-29T02:19:02.456Z,84.50
2017-10-29T02:21:29.989Z,84.80
2017-10-29T02:23:57.564Z,84.90
2017-10-29T02:26:25.854Z,84.10
2017-10-29T02:28:53.383Z,84.00
2017-10-29T02:31:20.952Z,84.00
2017-10-29T02:33:49.242Z,83.80
2017-10-29T02:36:17.527Z,83.30
2017-10-29T02:38:45.117Z,83.20
2017-10-29T02:41:13.561Z,83.40
2017-10-29T02:43:41.852Z,83.40
2017-10-29T02:46:09.403Z,83.40
2017-10-29T02:48:37.168Z,82.80
2017-10-29T02:51:04.698Z,82.10
2017-10-29T02:53:32.243Z,81.50
2017-10-29T02:55:59.783Z,81.00
2017-10-29T02:58:27.303Z,80.40
2017-10-29T03:00:54.885Z,79.20
2017-10-29T03:03:22.419Z,79.60
2017-10-29T03:05:50.715Z,78.70
2017-10-29T03:08:18.273Z,78.70
2017-10-29T03:10:45.795Z,78.00
2017-10-29T03:13:14.540Z,77.10
2017-10-29T03:15:42.095Z,77.60
2017-10-29T03:18:09.616Z,76.70
2017-10-29T03:20:37.907Z,76.30
2017-10-29T03:23:05.508Z,76.30
2017-10-29T03:25:33.031Z,76.20
2017-10-29T03:28:00.559Z,75.70
2017-10-29T03:30:28.125Z,75.40
2017-10-29T03:32:56.415Z,74.50
2017-10-29T03:35:24.708Z,75.50
2017-10-29T03:37:52.264Z,75.40
2017-10-29T03:40:19.793Z,74.10
2017-10-29T03:42:47.323Z,74.20
2017-10-29T03:45:16.491Z,73.90
2017-10-29T03:47:44.024Z,73.00
2017-10-29T03:50:12.451Z,73.40
2017-10-29T03:52:40.016Z,73.40
2017-10-29T03:55:07.552Z,71.90
2017-10-29T03:57:35.092Z,72.70
2017-10-29T04:00:03.409Z,70.50
2017-10-29T04:02:30.940Z,70.40
2017-10-29T04:04:58.468Z,70.60
2017-10-29T04:07:26.043Z,69.70
2017-10-29T04:09:54.331Z,69.40
2017-10-29T04:12:21.847Z,69.30
2017-10-29T04:14:49.407Z,69.20
2017-10-29T04:17:16.931Z,68.50
2017-10-29T04:19:44.463Z,68.00
2017-10-29T04:22:12.011Z,67.80
2017-10-29T04:24:39.531Z,66.90
2017-10-29T04:27:07.055Z,66.50
2017-10-29T04:29:34.636Z,66.70
2017-10-29T04:32:02.169Z,67.00
2017-10-29T04:34:29.708Z,66.70
2017-10-29T04:36:58.037Z,66.50
2017-10-29T04:39:25.571Z,65.80
2017-10-29T04:41:53.097Z,66.10
2017-10-29T04:44:20.655Z,66.30
2017-10-29T04:46:48.190Z,66.40
2017-10-29T04:49:16.456Z,66.10
2017-10-29T04:51:44.657Z,66.10
2017-10-29T04:54:12.188Z,66.30
2017-10-29T04:56:39.722Z,65.70
2017-10-29T04:59:07.271Z,65.40
2017-10-29T05:01:34.816Z,65.70
2017-10-29T05:04:03.112Z,65.20
2017-10-29T05:06:30.744Z,65.20
2017-10-29T05:08:58.280Z,65.50
2017-10-29T05:11:25.908Z,65.40
2017-10-29T05:13:53.548Z,64.90
2017-10-29T05:16:21.100Z,65.00
2017-10-29T05:18:48.631Z,65.40
2017-10-29T05:21:16.427Z,65.10
2017-10-29T05:23:44.891Z,65.10
2017-10-29T05:26:12.425Z,64.40
2017-10-29T05:28:39.988Z,64.40
2017-10-29T05:31:07.520Z,64.60
2017-10-29T05:33:35.051Z,65.20
2017-10-29T05:36:02.629Z,64.70
2017-10-29T05:38:30.160Z,63.90
2017-10-29T05:40:57.687Z,64.50
2017-10-29T05:43:25.240Z,64.40
2017-10-29T05:45:52.767Z,66.30
2017-10-29T05:48:20.300Z,64.40
2017-10-29T05:50:47.856Z,64.60
2017-10-29T05:53:16.399Z,64.90
2017-10-29T05:55:43.923Z,64.80
2017-10-29T05:58:11.500Z,64.70
2017-10-29T06:00:39.028Z,65.10
2017-10-29T06:03:06.569Z,65.40
2017-10-29T06:05:34.128Z,65.30
2017-10-29T06:08:01.665Z,65.60
2017-10-29T06:10:29.196Z,66.30
2017-10-29T06:12:56.752Z,67.90
2017-10-29T06:15:24.336Z,68.50
2017-10-29T06:17:51.869Z,68.60
2017-10-29T06:20:19.456Z,68.90
2017-10-29T06:22:46.984Z,69.00
2017-10-29T06:25:15.525Z,69.50
2017-10-29T06:27:43.851Z,69.90
2017-10-29T06:30:11.369Z,69.80
2017-10-29T06:32:38.913Z,69.80
2017-10-29T06:35:06.564Z,69.90
2017-10-29T06:37:34.085Z,70.20
2017-10-29T06:40:01.603Z,70.30
2017-10-29T06:42:29.190Z,70.40
2017-10-29T06:44:56.713Z,70.40
2017-10-29T06:47:24.231Z,70.80
2017-10-29T06:49:51.788Z,70.90
2017-10-29T06:52:20.084Z,71.60
2017-10-29T06:54:47.869Z,71.50
2017-10-29T06:57:16.464Z,71.80
2017-10-29T06:59:43.995Z,71.40
2017-10-29T07:02:11.526Z,72.20
2017-10-29T07:04:39.125Z,72.00
2017-10-29T07:07:06.648Z,72.10
2017-10-29T07:09:34.176Z,72.10
2017-10-29T07:12:02.499Z,72.90
2017-10-29T07:14:30.026Z,72.80
2017-10-29T07:16:57.555Z,71.80
2017-10-29T07:19:25.129Z,71.60
2017-10-29T07:21:52.683Z,71.40
2017-10-29T07:24:20.221Z,71.50
2017-10-29T07:26:47.803Z,71.70
2017-10-29T07:29:16.388Z,72.10
2017-10-29T07:31:43.928Z,72.10
2017-10-29T07:34:11.485Z,71.70
2017-10-29T07:36:39.019Z,72.60
2017-10-29T07:39:07.320Z,73.50
2017-10-29T07:41:34.876Z,73.50
2017-10-29T07:44:02.407Z,74.20
2017-10-29T07:46:29.949Z,74.10
2017-10-29T07:48:57.541Z,74.50
2017-10-29T07:51:25.077Z,74.70
2017-10-29T07:53:52.596Z,75.90
2017-10-29T07:56:20.152Z,76.40
2017-10-29T07:58:47.684Z,76.70
2017-10-29T08:01:16.362Z,77.10
2017-10-29T08:03:43.909Z,78.10
2017-10-29T08:06:11.441Z,78.30
2017-10-29T08:08:38.969Z,79.30
2017-10-29T08:11:06.572Z,79.80
2017-10-29T08:13:34.108Z,79.40
2017-10-29T08:16:01.644Z,79.20
2017-10-29T08:18:29.204Z,79.90
2017-10-29T08:20:56.727Z,79.10
2017-10-29T08:23:24.395Z,78.90
2017-10-29T08:25:51.952Z,78.40
2017-10-29T08:28:19.480Z,77.40
2017-10-29T08:30:46.998Z,75.70
2017-10-29T08:33:27.644Z,75.20
2017-10-29T08:38:29.789Z,75.40
2017-10-29T08:40:58.087Z,75.20
2017-10-29T08:43:25.614Z,75.20
2017-10-29T08:45:53.928Z,75.00
2017-10-29T08:48:22.228Z,75.00
2017-10-29T08:50:49.782Z,75.00
2017-10-29T08:53:18.388Z,74.90
2017-10-29T08:55:46.019Z,74.80
2017-10-29T08:58:14.551Z,74.80
2017-10-29T09:00:42.129Z,75.90
2017-10-29T09:03:10.424Z,75.00
2017-10-29T09:05:37.948Z,74.90
2017-10-29T09:08:05.516Z,75.00
2017-10-29T09:10:33.824Z,75.90
2017-10-29T09:13:01.368Z,75.90
2017-10-29T09:15:28.972Z,75.90
2017-10-29T09:17:56.536Z,76.20
2017-10-29T09:20:25.142Z,76.60
2017-10-29T09:22:52.724Z,75.60
2017-10-29T09:25:20.290Z,75.50
2017-10-29T09:27:47.946Z,75.40
2017-10-29T09:30:16.492Z,74.90
2017-10-29T09:32:44.053Z,74.90
2017-10-29T09:35:11.636Z,75.20
2017-10-29T09:37:39.225Z,76.10
2017-10-29T09:40:07.020Z,76.80
2017-10-29T09:42:34.652Z,77.30
2017-10-29T09:45:02.268Z,77.70
2017-10-29T09:47:29.907Z,78.20
2017-10-29T09:49:57.485Z,78.30
2017-10-29T09:52:25.060Z,78.90
2017-10-29T09:54:52.607Z,78.40
2017-10-29T09:57:20.212Z,79.60
2017-10-29T09:59:48.077Z,80.70
2017-10-29T10:02:16.397Z,81.70
2017-10-29T10:04:43.982Z,81.50
2017-10-29T10:07:11.756Z,81.40
2017-10-29T10:09:40.064Z,82.80
2017-10-29T10:12:07.669Z,82.80
2017-10-29T10:14:35.321Z,82.50
2017-10-29T10:17:02.953Z,83.10
2017-10-29T10:19:30.525Z,82.40
2017-10-29T10:21:58.875Z,82.70
2017-10-29T10:24:26.421Z,82.70
2017-10-29T10:26:54.740Z,83.50
2017-10-29T10:29:22.488Z,83.10
2017-10-29T10:31:50.192Z,83.20
2017-10-29T10:34:17.775Z,83.40
2017-10-29T10:36:46.116Z,84.60
2017-10-29T10:39:15.502Z,84.60
2017-10-29T10:41:43.040Z,84.10
2017-10-29T10:44:10.626Z,85.00
2017-10-29T10:46:38.181Z,85.90
2017-10-29T10:49:05.724Z,86.30
2017-10-29T10:51:34.073Z,88.20
2017-10-29T10:54:01.784Z,88.20
2017-10-29T10:56:29.379Z,88.60
2017-10-29T10:58:56.970Z,88.80
2017-10-29T11:01:26.373Z,89.50
2017-10-29T11:03:53.949Z,89.50
2017-10-29T11:06:24.649Z,89.80
2017-10-29T11:08:52.197Z,89.80
2017-10-29T11:11:19.743Z,90.40
2017-10-29T11:13:48.438Z,91.00
2017-10-29T11:16:16.413Z,91.00
2017-10-29T11:18:45.260Z,90.50
2017-10-29T11:21:15.636Z,89.00
2017-10-29T11:23:43.197Z,88.70
2017-10-29T11:26:10.731Z,86.40
2017-10-29T11:28:38.348Z,85.40
2017-10-29T11:31:05.876Z,85.00
2017-10-29T11:33:33.408Z,85.00
2017-10-29T11:36:00.965Z,85.60
2017-10-29T11:38:28.496Z,86.30
2017-10-29T11:40:56.016Z,85.80
2017-10-29T11:43:23.593Z,84.30
2017-10-29T11:45:51.136Z,85.20
2017-10-29T11:48:18.703Z,84.20
2017-10-29T11:50:47.453Z,84.40
2017-10-29T11:53:16.463Z,85.20
2017-10-29T11:55:44.002Z,85.00
2017-10-29T11:58:11.586Z,85.50
2017-10-29T12:03:32.605Z,86.30
2017-10-29T12:06:00.136Z,86.00
2017-10-29T12:08:27.677Z,85.60
2017-10-29T12:10:56.040Z,85.10
2017-10-29T12:13:23.608Z,85.00
2017-10-29T12:15:51.907Z,85.00
2017-10-29T12:18:19.456Z,85.00
2017-10-29T12:20:48.002Z,84.00
2017-10-29T12:23:17.137Z,84.10
2017-10-29T12:25:44.683Z,84.00
2017-10-29T12:28:13.901Z,82.90
2017-10-29T12:30:41.439Z,82.90
2017-10-29T12:33:09.793Z,83.20
2017-10-29T12:35:37.327Z,83.80
2017-10-29T12:38:04.855Z,83.90
2017-10-29T12:40:32.425Z,84.20
2017-10-29T12:42:59.956Z,84.10
2017-10-29T12:45:28.332Z,83.30
2017-10-29T12:47:55.889Z,83.30
2017-10-29T12:50:23.424Z,84.10
2017-10-29T12:52:50.953Z,83.60
2017-10-29T12:55:18.535Z,83.50
2017-10-29T12:57:46.063Z,83.40
2017-10-29T13:00:15.551Z,83.70
2017-10-29T13:02:43.893Z,83.50
2017-10-29T13:05:12.516Z,83.50
2017-10-29T13:07:40.053Z,83.70
2017-10-29T13:10:07.607Z,83.10
2017-10-29T13:12:35.131Z,84.40
2017-10-29T13:15:02.661Z,83.00
2017-10-29T13:17:30.263Z,82.90
2017-10-29T13:19:57.797Z,82.40
2017-10-29T13:22:25.321Z,82.70
2017-10-29T13:24:52.913Z,82.30
2017-10-29T13:27:20.443Z,82.30
2017-10-29T13:29:47.980Z,82.70
2017-10-29T13:32:16.411Z,80.80
2017-10-29T13:34:43.944Z,80.90
2017-10-29T13:37:12.251Z,81.20
2017-10-29T13:39:39.824Z,81.10
2017-10-29T13:42:07.382Z,80.90
2017-10-29T13:44:34.933Z,81.00
2017-10-29T13:47:03.256Z,81.20
2017-10-29T13:49:30.794Z,81.20
2017-10-29T13:51:59.088Z,81.10
2017-10-29T13:54:26.655Z,81.10
2017-10-29T13:56:54.191Z,81.00
2017-10-29T13:59:21.717Z,80.90
2017-10-29T14:01:49.291Z,81.10
2017-10-29T14:04:16.822Z,81.30
2017-10-29T14:06:45.819Z,80.10
2017-10-29T14:09:15.353Z,79.80
2017-10-29T14:11:42.886Z,79.70
2017-10-29T14:14:10.419Z,79.10
2017-10-29T14:16:38.000Z,80.00
2017-10-29T14:19:05.537Z,80.10
2017-10-29T14:21:33.077Z,79.80
2017-10-29T14:24:01.400Z,80.00
2017-10-29T14:26:28.976Z,80.30
2017-10-29T14:28:56.513Z,79.30
2017-10-29T14:31:24.840Z,80.10
2017-10-29T14:33:52.371Z,80.00
2017-10-29T14:36:19.909Z,80.50
2017-10-29T14:38:48.251Z,80.60
2017-10-29T14:41:16.406Z,80.60
2017-10-29T14:43:43.931Z,81.50
2017-10-29T14:46:11.516Z,81.50
2017-10-29T14:48:39.077Z,81.50
2017-10-29T14:51:06.623Z,81.00
2017-10-29T14:53:34.177Z,81.10
2017-10-29T14:56:01.708Z,80.90
2017-10-29T14:58:30.000Z,79.40
2017-10-29T15:00:57.576Z,79.30
2017-10-29T15:03:25.600Z,79.20
2017-10-29T15:05:53.176Z,80.60
2017-10-29T15:08:20.771Z,81.30
2017-10-29T15:10:48.304Z,81.40
2017-10-29T15:13:16.445Z,81.50
2017-10-29T15:15:44.136Z,81.40
2017-10-29T15:18:12.452Z,79.80
2017-10-29T15:20:40.753Z,78.80
2017-10-29T15:23:08.304Z,78.70
2017-10-29T15:25:35.823Z,77.20
2017-10-29T15:28:03.363Z,76.80
2017-10-29T15:30:31.100Z,77.50
2017-10-29T15:32:59.153Z,76.10
2017-10-29T15:35:27.597Z,74.10
2017-10-29T15:37:55.189Z,73.50
2017-10-29T15:40:24.169Z,71.70
2017-10-29T15:42:51.876Z,71.70
2017-10-29T15:45:19.477Z,70.20
2017-10-29T15:47:48.012Z,71.10
2017-10-29T15:50:16.489Z,69.80
2017-10-29T15:52:44.100Z,70.70
2017-10-29T15:55:11.639Z,70.20
2017-10-29T15:57:39.180Z,70.50
2017-10-29T16:00:06.787Z,70.70
2017-10-29T16:02:37.261Z,68.90
2017-10-29T16:05:05.031Z,69.10
2017-10-29T16:07:32.596Z,68.40
2017-10-29T16:10:00.618Z,68.90
2017-10-29T16:12:28.148Z,68.70
2017-10-29T16:14:55.732Z,69.30
2017-10-29T16:17:24.523Z,69.20
2017-10-29T16:19:52.074Z,69.10
2017-10-29T16:22:20.020Z,69.60
2017-10-29T16:24:50.179Z,70.20
2017-10-29T16:27:17.728Z,70.90
2017-10-29T16:29:45.338Z,71.80
2017-10-29T16:32:26.139Z,73.60
2017-10-29T16:43:18.756Z,73.50
2017-10-29T16:45:46.601Z,76.00
2017-10-29T16:48:27.164Z,75.20
2017-10-29T16:54:16.649Z,73.50
2017-10-29T16:56:44.195Z,73.50
2017-10-29T16:59:11.751Z,73.90
2017-10-29T17:01:39.364Z,73.10
2017-10-29T17:04:06.911Z,72.60
2017-10-29T17:06:35.148Z,72.00
2017-10-29T17:09:06.305Z,70.40
2017-10-29T17:11:34.597Z,69.40
2017-10-29T17:14:02.923Z,69.10
2017-10-29T17:16:40.446Z,69.60
2017-10-29T17:19:07.973Z,70.00
2017-10-29T17:21:36.277Z,70.30
2017-10-29T17:24:03.834Z,70.70
2017-10-29T17:26:31.404Z,70.70
2017-10-29T17:28:58.936Z,70.00
2017-10-29T17:31:26.489Z,69.40
2017-10-29T17:33:54.007Z,69.90
2017-10-29T17:36:22.311Z,70.60
2017-10-29T17:38:49.922Z,70.60
2017-10-29T17:41:17.456Z,70.60
2017-10-29T17:43:45.006Z,70.80
2017-10-29T17:46:12.581Z,71.10
2017-10-29T17:48:40.120Z,71.30
2017-10-29T17:51:07.648Z,72.00
2017-10-29T17:53:35.968Z,73.20
2017-10-29T17:56:03.496Z,73.20
2017-10-29T17:58:31.029Z,74.30
2017-10-29T18:00:58.706Z,75.50
2017-10-29T18:03:26.239Z,77.10
2017-10-29T18:05:53.782Z,78.10
2017-10-29T18:08:21.353Z,78.40
2017-10-29T18:10:51.163Z,78.50
2017-10-29T18:13:18.863Z,78.80
2017-10-29T18:15:47.223Z,78.60
2017-10-29T18:18:27.791Z,78.60
2017-10-29T18:24:57.748Z,78.40
2017-10-29T18:27:26.065Z,77.60
2017-10-29T18:29:53.630Z,77.60
2017-10-29T18:32:21.204Z,77.70
2017-10-29T18:34:48.756Z,78.10
2017-10-29T18:37:17.164Z,77.40
2017-10-29T18:39:44.748Z,77.40
2017-10-29T18:42:12.303Z,77.40
2017-10-29T18:44:39.896Z,76.70
2017-10-29T18:47:07.476Z,76.40
2017-10-29T18:49:35.007Z,76.70
2017-10-29T18:52:02.531Z,76.90
2017-10-29T18:54:30.109Z,77.00
2017-10-29T18:56:57.715Z,76.80
2017-10-29T18:59:26.058Z,77.10
2017-10-29T19:01:53.934Z,76.80
2017-10-29T19:04:21.553Z,76.40
2017-10-29T19:06:51.557Z,75.60
2017-10-29T19:09:21.969Z,75.00
2017-10-29T19:11:49.532Z,74.80
2017-10-29T19:14:17.789Z,74.90
2017-10-29T19:16:45.414Z,74.70
2017-10-29T19:19:25.657Z,74.50
2017-10-29T19:31:24.375Z,74.50
2017-10-29T19:37:46.261Z,74.80
2017-10-29T19:40:26.088Z,74.20
2017-10-29T19:53:35.181Z,74.40
2017-10-29T19:56:02.968Z,75.20
2017-10-29T19:58:30.566Z,75.20
2017-10-29T20:00:58.165Z,74.90
2017-10-29T20:03:25.704Z,74.80
2017-10-29T20:05:53.344Z,74.70
2017-10-29T20:08:21.685Z,74.90
2017-10-29T20:10:49.232Z,74.80
2017-10-29T20:13:16.764Z,74.90
2017-10-29T20:15:45.704Z,75.10
2017-10-29T20:18:23.674Z,75.70
2017-10-29T20:23:27.205Z,75.60
2017-10-29T20:25:54.757Z,76.00
2017-10-29T20:28:23.100Z,76.40
2017-10-29T20:30:51.406Z,76.40
2017-10-29T20:33:18.986Z,76.60
2017-10-29T20:35:46.536Z,76.40
2017-10-29T20:38:16.275Z,76.40
2017-10-29T20:40:43.823Z,76.40
2017-10-29T20:43:11.404Z,76.80
2017-10-29T20:45:39.781Z,76.80
2017-10-29T20:48:07.316Z,77.00
2017-10-29T20:50:34.886Z,77.50
2017-10-29T20:53:04.349Z,77.50
2017-10-29T20:55:31.905Z,77.50
2017-10-29T20:57:59.449Z,77.40
2017-10-29T21:00:27.928Z,77.50
2017-10-29T21:02:55.556Z,77.40
2017-10-29T21:05:23.105Z,77.40
2017-10-29T21:07:50.681Z,77.50
2017-10-29T21:10:18.888Z,77.80
2017-10-29T21:12:46.444Z,77.50
2017-10-29T21:15:24.905Z,77.80
2017-10-29T21:21:10.802Z,78.10
2017-10-29T21:23:38.384Z,78.40
2017-10-29T21:26:06.021Z,78.40
2017-10-29T21:28:33.605Z,78.50
2017-10-29T21:31:01.170Z,78.90
2017-10-29T21:33:28.698Z,78.50
2017-10-29T21:35:56.300Z,78.60
2017-10-29T21:38:23.824Z,78.60
2017-10-29T21:40:51.356Z,78.60
2017-10-29T21:43:19.684Z,78.50
2017-10-29T21:45:47.221Z,78.50
2017-10-29T21:48:16.490Z,78.40
2017-10-29T21:50:44.824Z,78.70
2017-10-29T21:53:12.366Z,78.80
2017-10-29T21:55:39.897Z,78.60
2017-10-29T21:58:07.483Z,78.50
2017-10-29T22:00:35.012Z,78.40
2017-10-29T22:03:03.311Z,78.70
2017-10-29T22:05:30.870Z,78.50
2017-10-29T22:07:58.507Z,78.50
2017-10-29T22:10:27.341Z,78.80
2017-10-29T22:12:54.915Z,78.90
2017-10-29T22:15:22.439Z,78.80
2017-10-29T22:17:50.743Z,79.10
2017-10-29T22:20:18.311Z,79.00
2017-10-29T22:22:46.326Z,79.10
2017-10-29T22:25:15.507Z,79.70
2017-10-29T22:27:43.827Z,79.50
2017-10-29T22:30:11.351Z,79.40
2017-10-29T22:32:38.883Z,79.50
2017-10-29T22:35:06.431Z,79.60
2017-10-29T22:37:33.960Z,79.60
2017-10-29T22:40:01.492Z,79.60
2017-10-29T22:42:29.426Z,80.00
2017-10-29T22:44:57.747Z,80.20
2017-10-29T22:47:26.035Z,80.20
2017-10-29T22:49:53.592Z,80.20
2017-10-29T22:52:21.144Z,80.20
2017-10-29T22:54:48.684Z,80.40
2017-10-29T22:57:16.460Z,80.50
2017-10-29T22:59:43.982Z,80.60
2017-10-29T23:02:11.515Z,80.80
2017-10-29T23:04:39.099Z,81.00
2017-10-29T23:07:18.543Z,81.20
2017-10-29T23:09:46.099Z,81.40
2017-10-29T23:12:15.466Z,81.20
2017-10-29T23:14:42.987Z,81.10
2017-10-29T23:17:11.307Z,81.80
2017-10-29T23:19:38.836Z,81.60
2017-10-29T23:22:07.135Z,81.80
2017-10-29T23:24:34.851Z,81.70
2017-10-29T23:27:02.384Z,81.80
2017-10-29T23:29:29.911Z,81.80
2017-10-29T23:31:57.464Z,82.10
2017-10-29T23:34:25.009Z,82.30
2017-10-29T23:36:52.542Z,82.50
2017-10-29T23:39:20.087Z,82.60
2017-10-29T23:41:47.620Z,82.60
2017-10-29T23:44:16.444Z,82.50
2017-10-29T23:46:44.040Z,82.40
2017-10-29T23:49:11.571Z,82.50
2017-10-29T23:51:39.092Z,82.30
2017-10-29T23:54:06.645Z,82.30
2017-10-29T23:56:34.176Z,82.60
2017-10-29T23:59:01.747Z,82.80
